sensor_id;sensor_type;location;lat;lon;timestamp;P1;durP1;ratioP1;P2;durP2;ratioP2
16642;SDS011;8435;52.184;5.406;2022-08-14T00:02:32;4.72;;;4.43;;
16642;SDS011;8435;52.184;5.406;2022-08-14T00:05:09;5.05;;;4.57;;
16642;SDS011;8435;52.184;5.406;2022-08-14T00:14:22;5.05;;;4.70;;
16642;SDS011;8435;52.184;5.406;2022-08-14T00:16:55;5.20;;;4.82;;
16642;SDS011;8435;52.184;5.406;2022-08-14T00:19:23;4.55;;;4.35;;
16642;SDS011;8435;52.184;5.406;2022-08-14T00:21:52;5.30;;;4.90;;
16642;SDS011;8435;52.184;5.406;2022-08-14T00:24:21;5.07;;;4.68;;
16642;SDS011;8435;52.184;5.406;2022-08-14T00:26:49;5.32;;;5.03;;
16642;SDS011;8435;52.184;5.406;2022-08-14T00:29:38;5.47;;;5.10;;
16642;SDS011;8435;52.184;5.406;2022-08-14T00:32:11;5.40;;;4.90;;
16642;SDS011;8435;52.184;5.406;2022-08-14T00:37:32;5.57;;;5.07;;
16642;SDS011;8435;52.184;5.406;2022-08-14T00:40:21;5.63;;;4.93;;
16642;SDS011;8435;52.184;5.406;2022-08-14T00:42:56;5.55;;;5.15;;
16642;SDS011;8435;52.184;5.406;2022-08-14T00:48:55;4.85;;;4.55;;
16642;SDS011;8435;52.184;5.406;2022-08-14T00:51:24;5.47;;;4.97;;
16642;SDS011;8435;52.184;5.406;2022-08-14T00:57:11;5.40;;;5.00;;
16642;SDS011;8435;52.184;5.406;2022-08-14T01:06:24;5.65;;;5.25;;
16642;SDS011;8435;52.184;5.406;2022-08-14T01:09:00;5.60;;;5.03;;
16642;SDS011;8435;52.184;5.406;2022-08-14T01:11:29;5.30;;;4.90;;
16642;SDS011;8435;52.184;5.406;2022-08-14T01:14:01;6.18;;;5.57;;
16642;SDS011;8435;52.184;5.406;2022-08-14T01:16:29;5.90;;;5.50;;
16642;SDS011;8435;52.184;5.406;2022-08-14T01:18:57;6.10;;;5.60;;
16642;SDS011;8435;52.184;5.406;2022-08-14T01:21:43;6.32;;;5.90;;
16642;SDS011;8435;52.184;5.406;2022-08-14T01:24:31;5.28;;;4.95;;
16642;SDS011;8435;52.184;5.406;2022-08-14T01:27:01;5.60;;;5.20;;
16642;SDS011;8435;52.184;5.406;2022-08-14T01:29:43;6.15;;;5.75;;
16642;SDS011;8435;52.184;5.406;2022-08-14T01:32:11;5.93;;;5.53;;
16642;SDS011;8435;52.184;5.406;2022-08-14T01:34:41;6.05;;;5.45;;
16642;SDS011;8435;52.184;5.406;2022-08-14T01:40:23;5.72;;;5.32;;
16642;SDS011;8435;52.184;5.406;2022-08-14T01:42:58;5.45;;;5.05;;
16642;SDS011;8435;52.184;5.406;2022-08-14T01:45:26;5.85;;;5.45;;
16642;SDS011;8435;52.184;5.406;2022-08-14T01:48:00;5.80;;;5.40;;
16642;SDS011;8435;52.184;5.406;2022-08-14T01:50:35;5.57;;;5.18;;
16642;SDS011;8435;52.184;5.406;2022-08-14T01:53:03;6.20;;;5.60;;
16642;SDS011;8435;52.184;5.406;2022-08-14T01:55:54;6.03;;;5.55;;
16642;SDS011;8435;52.184;5.406;2022-08-14T01:58:34;5.88;;;5.38;;
16642;SDS011;8435;52.184;5.406;2022-08-14T02:01:02;6.40;;;5.90;;
16642;SDS011;8435;52.184;5.406;2022-08-14T02:03:38;6.47;;;5.97;;
16642;SDS011;8435;52.184;5.406;2022-08-14T02:06:10;6.00;;;5.50;;
16642;SDS011;8435;52.184;5.406;2022-08-14T02:09:00;6.00;;;5.50;;
16642;SDS011;8435;52.184;5.406;2022-08-14T02:11:32;6.15;;;5.72;;
16642;SDS011;8435;52.184;5.406;2022-08-14T02:14:06;9.07;;;5.97;;
16642;SDS011;8435;52.184;5.406;2022-08-14T02:16:37;6.43;;;5.82;;
16642;SDS011;8435;52.184;5.406;2022-08-14T02:19:08;5.95;;;5.55;;
16642;SDS011;8435;52.184;5.406;2022-08-14T02:21:51;6.50;;;5.95;;
16642;SDS011;8435;52.184;5.406;2022-08-14T02:24:20;6.40;;;5.85;;
16642;SDS011;8435;52.184;5.406;2022-08-14T02:27:03;6.40;;;5.90;;
16642;SDS011;8435;52.184;5.406;2022-08-14T02:29:40;5.72;;;5.30;;
16642;SDS011;8435;52.184;5.406;2022-08-14T02:32:21;6.47;;;6.00;;
16642;SDS011;8435;52.184;5.406;2022-08-14T02:35:29;6.07;;;5.47;;
16642;SDS011;8435;52.184;5.406;2022-08-14T02:38:13;6.40;;;5.90;;
16642;SDS011;8435;52.184;5.406;2022-08-14T02:40:41;6.60;;;6.10;;
16642;SDS011;8435;52.184;5.406;2022-08-14T02:46:09;6.85;;;6.10;;
16642;SDS011;8435;52.184;5.406;2022-08-14T02:48:39;6.18;;;5.78;;
16642;SDS011;8435;52.184;5.406;2022-08-14T02:51:19;6.30;;;5.90;;
16642;SDS011;8435;52.184;5.406;2022-08-14T02:53:47;6.22;;;5.82;;
16642;SDS011;8435;52.184;5.406;2022-08-14T02:56:15;6.35;;;5.85;;
16642;SDS011;8435;52.184;5.406;2022-08-14T03:01:40;6.13;;;5.65;;
16642;SDS011;8435;52.184;5.406;2022-08-14T03:04:17;6.07;;;5.60;;
16642;SDS011;8435;52.184;5.406;2022-08-14T03:06:55;6.22;;;5.72;;
16642;SDS011;8435;52.184;5.406;2022-08-14T03:15:37;7.00;;;6.30;;
16642;SDS011;8435;52.184;5.406;2022-08-14T03:18:08;6.47;;;6.03;;
16642;SDS011;8435;52.184;5.406;2022-08-14T03:20:54;7.18;;;6.60;;
16642;SDS011;8435;52.184;5.406;2022-08-14T03:23:24;6.63;;;6.15;;
16642;SDS011;8435;52.184;5.406;2022-08-14T03:25:52;6.88;;;6.38;;
16642;SDS011;8435;52.184;5.406;2022-08-14T03:28:19;6.75;;;6.25;;
16642;SDS011;8435;52.184;5.406;2022-08-14T03:30:54;6.95;;;6.45;;
16642;SDS011;8435;52.184;5.406;2022-08-14T03:33:22;7.38;;;6.68;;
16642;SDS011;8435;52.184;5.406;2022-08-14T03:39:04;6.88;;;6.32;;
16642;SDS011;8435;52.184;5.406;2022-08-14T03:41:44;7.10;;;6.53;;
16642;SDS011;8435;52.184;5.406;2022-08-14T03:44:12;7.22;;;6.72;;
16642;SDS011;8435;52.184;5.406;2022-08-14T03:49:33;7.32;;;6.82;;
16642;SDS011;8435;52.184;5.406;2022-08-14T03:52:03;7.22;;;6.72;;
16642;SDS011;8435;52.184;5.406;2022-08-14T03:54:36;7.35;;;6.85;;
16642;SDS011;8435;52.184;5.406;2022-08-14T03:57:20;6.90;;;6.40;;
16642;SDS011;8435;52.184;5.406;2022-08-14T03:59:48;7.60;;;7.10;;
16642;SDS011;8435;52.184;5.406;2022-08-14T04:05:07;6.88;;;6.38;;
16642;SDS011;8435;52.184;5.406;2022-08-14T04:07:55;7.15;;;6.65;;
16642;SDS011;8435;52.184;5.406;2022-08-14T04:10:27;7.82;;;7.25;;
16642;SDS011;8435;52.184;5.406;2022-08-14T04:12:57;8.70;;;8.02;;
16642;SDS011;8435;52.184;5.406;2022-08-14T04:15:31;7.40;;;6.80;;
16642;SDS011;8435;52.184;5.406;2022-08-14T04:18:03;7.15;;;6.68;;
16642;SDS011;8435;52.184;5.406;2022-08-14T04:20:38;7.55;;;7.05;;
16642;SDS011;8435;52.184;5.406;2022-08-14T04:23:08;8.38;;;7.53;;
16642;SDS011;8435;52.184;5.406;2022-08-14T04:25:38;7.95;;;7.40;;
16642;SDS011;8435;52.184;5.406;2022-08-14T04:28:05;7.78;;;7.18;;
16642;SDS011;8435;52.184;5.406;2022-08-14T04:30:33;8.60;;;7.68;;
16642;SDS011;8435;52.184;5.406;2022-08-14T04:33:22;7.90;;;7.25;;
16642;SDS011;8435;52.184;5.406;2022-08-14T04:35:49;7.63;;;7.10;;
16642;SDS011;8435;52.184;5.406;2022-08-14T04:38:20;7.68;;;7.18;;
16642;SDS011;8435;52.184;5.406;2022-08-14T04:41:20;7.85;;;7.15;;
16642;SDS011;8435;52.184;5.406;2022-08-14T04:44:05;8.52;;;7.85;;
16642;SDS011;8435;52.184;5.406;2022-08-14T04:46:33;7.85;;;7.15;;
16642;SDS011;8435;52.184;5.406;2022-08-14T04:49:04;8.45;;;7.85;;
16642;SDS011;8435;52.184;5.406;2022-08-14T04:51:44;8.48;;;7.80;;
16642;SDS011;8435;52.184;5.406;2022-08-14T04:54:11;8.10;;;7.38;;
16642;SDS011;8435;52.184;5.406;2022-08-14T04:56:41;7.70;;;7.05;;
16642;SDS011;8435;52.184;5.406;2022-08-14T04:59:27;7.82;;;7.22;;
16642;SDS011;8435;52.184;5.406;2022-08-14T05:02:10;8.00;;;7.40;;
16642;SDS011;8435;52.184;5.406;2022-08-14T05:04:52;7.85;;;7.15;;
16642;SDS011;8435;52.184;5.406;2022-08-14T05:07:22;8.38;;;7.78;;
16642;SDS011;8435;52.184;5.406;2022-08-14T05:10:03;8.70;;;8.10;;
16642;SDS011;8435;52.184;5.406;2022-08-14T05:12:33;8.98;;;8.27;;
16642;SDS011;8435;52.184;5.406;2022-08-14T05:15:22;8.65;;;7.88;;
16642;SDS011;8435;52.184;5.406;2022-08-14T05:18:20;8.68;;;8.07;;
16642;SDS011;8435;52.184;5.406;2022-08-14T05:20:50;8.25;;;7.60;;
16642;SDS011;8435;52.184;5.406;2022-08-14T05:23:34;8.40;;;7.72;;
16642;SDS011;8435;52.184;5.406;2022-08-14T05:26:05;8.73;;;8.02;;
16642;SDS011;8435;52.184;5.406;2022-08-14T05:28:43;8.32;;;7.72;;
16642;SDS011;8435;52.184;5.406;2022-08-14T05:31:12;8.90;;;8.30;;
16642;SDS011;8435;52.184;5.406;2022-08-14T05:33:42;8.85;;;8.15;;
16642;SDS011;8435;52.184;5.406;2022-08-14T05:39:04;8.85;;;8.05;;
16642;SDS011;8435;52.184;5.406;2022-08-14T05:41:31;8.90;;;8.20;;
16642;SDS011;8435;52.184;5.406;2022-08-14T05:44:00;9.23;;;8.43;;
16642;SDS011;8435;52.184;5.406;2022-08-14T05:46:27;9.13;;;8.52;;
16642;SDS011;8435;52.184;5.406;2022-08-14T05:49:41;8.27;;;7.68;;
16642;SDS011;8435;52.184;5.406;2022-08-14T05:52:11;9.63;;;8.82;;
16642;SDS011;8435;52.184;5.406;2022-08-14T05:54:40;9.75;;;8.95;;
16642;SDS011;8435;52.184;5.406;2022-08-14T05:57:07;10.30;;;9.50;;
16642;SDS011;8435;52.184;5.406;2022-08-14T05:59:34;9.68;;;8.70;;
16642;SDS011;8435;52.184;5.406;2022-08-14T06:02:19;9.13;;;8.43;;
16642;SDS011;8435;52.184;5.406;2022-08-14T06:04:57;9.00;;;8.20;;
16642;SDS011;8435;52.184;5.406;2022-08-14T06:07:28;9.30;;;8.50;;
16642;SDS011;8435;52.184;5.406;2022-08-14T06:09:55;9.32;;;8.63;;
16642;SDS011;8435;52.184;5.406;2022-08-14T06:12:28;9.32;;;8.63;;
16642;SDS011;8435;52.184;5.406;2022-08-14T06:14:58;8.60;;;7.97;;
16642;SDS011;8435;52.184;5.406;2022-08-14T06:17:30;8.65;;;8.05;;
16642;SDS011;8435;52.184;5.406;2022-08-14T06:19:58;8.55;;;7.95;;
16642;SDS011;8435;52.184;5.406;2022-08-14T06:22:34;9.38;;;8.57;;
16642;SDS011;8435;52.184;5.406;2022-08-14T06:25:13;9.18;;;8.38;;
16642;SDS011;8435;52.184;5.406;2022-08-14T06:27:43;8.85;;;8.13;;
16642;SDS011;8435;52.184;5.406;2022-08-14T06:30:13;8.88;;;8.18;;
16642;SDS011;8435;52.184;5.406;2022-08-14T06:33:44;8.60;;;7.97;;
16642;SDS011;8435;52.184;5.406;2022-08-14T06:36:07;8.77;;;8.18;;
16642;SDS011;8435;52.184;5.406;2022-08-14T06:38:36;8.38;;;7.75;;
16642;SDS011;8435;52.184;5.406;2022-08-14T06:41:03;9.18;;;8.48;;
16642;SDS011;8435;52.184;5.406;2022-08-14T06:43:31;9.10;;;8.40;;
16642;SDS011;8435;52.184;5.406;2022-08-14T06:46:06;10.00;;;9.30;;
16642;SDS011;8435;52.184;5.406;2022-08-14T06:48:49;9.05;;;8.45;;
16642;SDS011;8435;52.184;5.406;2022-08-14T06:51:22;9.75;;;9.00;;
16642;SDS011;8435;52.184;5.406;2022-08-14T06:54:01;8.88;;;8.18;;
16642;SDS011;8435;52.184;5.406;2022-08-14T06:56:28;8.70;;;8.10;;
16642;SDS011;8435;52.184;5.406;2022-08-14T06:58:58;9.48;;;8.77;;
16642;SDS011;8435;52.184;5.406;2022-08-14T07:01:25;9.63;;;8.73;;
16642;SDS011;8435;52.184;5.406;2022-08-14T07:04:10;9.25;;;8.55;;
16642;SDS011;8435;52.184;5.406;2022-08-14T07:06:52;8.52;;;7.78;;
16642;SDS011;8435;52.184;5.406;2022-08-14T07:09:24;8.55;;;7.85;;
16642;SDS011;8435;52.184;5.406;2022-08-14T07:11:52;8.63;;;8.02;;
16642;SDS011;8435;52.184;5.406;2022-08-14T07:14:19;8.55;;;7.95;;
16642;SDS011;8435;52.184;5.406;2022-08-14T07:16:46;8.98;;;7.93;;
16642;SDS011;8435;52.184;5.406;2022-08-14T07:19:15;8.70;;;8.10;;
16642;SDS011;8435;52.184;5.406;2022-08-14T07:21:45;9.48;;;8.77;;
16642;SDS011;8435;52.184;5.406;2022-08-14T07:24:16;8.52;;;7.75;;
16642;SDS011;8435;52.184;5.406;2022-08-14T07:26:46;8.70;;;8.10;;
16642;SDS011;8435;52.184;5.406;2022-08-14T07:29:13;8.57;;;7.97;;
16642;SDS011;8435;52.184;5.406;2022-08-14T07:31:40;9.40;;;8.70;;
16642;SDS011;8435;52.184;5.406;2022-08-14T07:34:07;8.40;;;7.75;;
16642;SDS011;8435;52.184;5.406;2022-08-14T07:36:34;8.10;;;7.40;;
16642;SDS011;8435;52.184;5.406;2022-08-14T07:41:53;8.93;;;8.30;;
16642;SDS011;8435;52.184;5.406;2022-08-14T07:44:21;8.02;;;7.50;;
16642;SDS011;8435;52.184;5.406;2022-08-14T07:46:48;7.75;;;7.25;;
16642;SDS011;8435;52.184;5.406;2022-08-14T07:49:16;8.85;;;8.15;;
16642;SDS011;8435;52.184;5.406;2022-08-14T07:51:44;8.52;;;7.82;;
16642;SDS011;8435;52.184;5.406;2022-08-14T07:54:14;8.25;;;7.65;;
16642;SDS011;8435;52.184;5.406;2022-08-14T07:56:49;8.57;;;7.85;;
16642;SDS011;8435;52.184;5.406;2022-08-14T07:59:17;7.80;;;7.30;;
16642;SDS011;8435;52.184;5.406;2022-08-14T08:01:46;8.93;;;8.23;;
16642;SDS011;8435;52.184;5.406;2022-08-14T08:04:20;7.95;;;7.38;;
16642;SDS011;8435;52.184;5.406;2022-08-14T08:06:57;7.47;;;6.85;;
16642;SDS011;8435;52.184;5.406;2022-08-14T08:09:26;7.15;;;6.65;;
16642;SDS011;8435;52.184;5.406;2022-08-14T08:11:56;7.40;;;6.93;;
16642;SDS011;8435;52.184;5.406;2022-08-14T08:14:25;7.88;;;7.28;;
16642;SDS011;8435;52.184;5.406;2022-08-14T08:16:53;6.82;;;6.38;;
16642;SDS011;8435;52.184;5.406;2022-08-14T08:19:25;7.07;;;6.65;;
16642;SDS011;8435;52.184;5.406;2022-08-14T08:21:51;6.65;;;6.22;;
16642;SDS011;8435;52.184;5.406;2022-08-14T08:24:19;7.40;;;6.90;;
16642;SDS011;8435;52.184;5.406;2022-08-14T08:26:46;7.07;;;6.57;;
16642;SDS011;8435;52.184;5.406;2022-08-14T08:29:17;6.90;;;6.50;;
16642;SDS011;8435;52.184;5.406;2022-08-14T08:31:49;6.25;;;5.85;;
16642;SDS011;8435;52.184;5.406;2022-08-14T08:34:19;7.05;;;6.43;;
16642;SDS011;8435;52.184;5.406;2022-08-14T08:36:47;6.65;;;6.15;;
16642;SDS011;8435;52.184;5.406;2022-08-14T08:39:15;6.45;;;6.05;;
16642;SDS011;8435;52.184;5.406;2022-08-14T08:41:43;6.70;;;6.25;;
16642;SDS011;8435;52.184;5.406;2022-08-14T08:44:11;7.00;;;6.53;;
16642;SDS011;8435;52.184;5.406;2022-08-14T08:46:39;6.88;;;6.47;;
16642;SDS011;8435;52.184;5.406;2022-08-14T08:49:10;7.13;;;6.72;;
16642;SDS011;8435;52.184;5.406;2022-08-14T08:51:37;6.40;;;6.05;;
16642;SDS011;8435;52.184;5.406;2022-08-14T08:54:05;6.75;;;6.35;;
16642;SDS011;8435;52.184;5.406;2022-08-14T08:56:37;6.65;;;6.25;;
16642;SDS011;8435;52.184;5.406;2022-08-14T08:59:16;7.20;;;6.78;;
16642;SDS011;8435;52.184;5.406;2022-08-14T09:01:50;7.88;;;7.38;;
16642;SDS011;8435;52.184;5.406;2022-08-14T09:04:20;7.38;;;6.88;;
16642;SDS011;8435;52.184;5.406;2022-08-14T09:06:47;7.10;;;6.57;;
16642;SDS011;8435;52.184;5.406;2022-08-14T09:09:21;7.70;;;7.20;;
16642;SDS011;8435;52.184;5.406;2022-08-14T09:11:50;7.45;;;6.75;;
16642;SDS011;8435;52.184;5.406;2022-08-14T09:14:18;7.20;;;6.55;;
16642;SDS011;8435;52.184;5.406;2022-08-14T09:16:46;7.25;;;6.75;;
16642;SDS011;8435;52.184;5.406;2022-08-14T09:19:13;7.25;;;6.75;;
16642;SDS011;8435;52.184;5.406;2022-08-14T09:21:42;6.60;;;6.20;;
16642;SDS011;8435;52.184;5.406;2022-08-14T09:24:10;7.65;;;7.13;;
16642;SDS011;8435;52.184;5.406;2022-08-14T09:26:42;8.05;;;7.20;;
16642;SDS011;8435;52.184;5.406;2022-08-14T09:29:11;7.43;;;6.82;;
16642;SDS011;8435;52.184;5.406;2022-08-14T09:31:41;8.20;;;7.45;;
16642;SDS011;8435;52.184;5.406;2022-08-14T09:34:13;7.38;;;6.97;;
16642;SDS011;8435;52.184;5.406;2022-08-14T09:36:51;7.30;;;6.80;;
16642;SDS011;8435;52.184;5.406;2022-08-14T09:39:35;7.65;;;7.25;;
16642;SDS011;8435;52.184;5.406;2022-08-14T09:42:22;7.13;;;6.63;;
16642;SDS011;8435;52.184;5.406;2022-08-14T09:45:05;6.93;;;6.43;;
16642;SDS011;8435;52.184;5.406;2022-08-14T09:47:41;7.15;;;6.65;;
16642;SDS011;8435;52.184;5.406;2022-08-14T09:50:17;7.18;;;6.40;;
16642;SDS011;8435;52.184;5.406;2022-08-14T09:52:49;7.20;;;6.60;;
16642;SDS011;8435;52.184;5.406;2022-08-14T09:55:18;7.25;;;6.70;;
16642;SDS011;8435;52.184;5.406;2022-08-14T09:57:48;7.28;;;6.70;;
16642;SDS011;8435;52.184;5.406;2022-08-14T10:00:16;7.15;;;6.65;;
16642;SDS011;8435;52.184;5.406;2022-08-14T10:05:32;6.45;;;6.05;;
16642;SDS011;8435;52.184;5.406;2022-08-14T10:08:02;5.93;;;5.63;;
16642;SDS011;8435;52.184;5.406;2022-08-14T10:10:30;6.78;;;6.38;;
16642;SDS011;8435;52.184;5.406;2022-08-14T10:12:59;6.53;;;6.03;;
16642;SDS011;8435;52.184;5.406;2022-08-14T10:15:27;6.15;;;5.65;;
16642;SDS011;8435;52.184;5.406;2022-08-14T10:18:06;6.25;;;5.85;;
16642;SDS011;8435;52.184;5.406;2022-08-14T10:20:36;6.75;;;6.25;;
16642;SDS011;8435;52.184;5.406;2022-08-14T10:23:23;6.75;;;6.32;;
16642;SDS011;8435;52.184;5.406;2022-08-14T10:25:51;5.88;;;5.57;;
16642;SDS011;8435;52.184;5.406;2022-08-14T10:28:22;6.03;;;5.63;;
16642;SDS011;8435;52.184;5.406;2022-08-14T10:30:49;6.60;;;6.05;;
16642;SDS011;8435;52.184;5.406;2022-08-14T10:33:25;6.50;;;6.00;;
16642;SDS011;8435;52.184;5.406;2022-08-14T10:35:53;5.90;;;5.50;;
16642;SDS011;8435;52.184;5.406;2022-08-14T10:38:29;5.85;;;5.45;;
16642;SDS011;8435;52.184;5.406;2022-08-14T10:41:09;6.10;;;5.70;;
16642;SDS011;8435;52.184;5.406;2022-08-14T10:43:40;5.75;;;5.35;;
16642;SDS011;8435;52.184;5.406;2022-08-14T10:46:12;5.68;;;5.38;;
16642;SDS011;8435;52.184;5.406;2022-08-14T10:48:40;5.43;;;5.10;;
16642;SDS011;8435;52.184;5.406;2022-08-14T10:51:08;5.90;;;5.50;;
16642;SDS011;8435;52.184;5.406;2022-08-14T10:53:36;5.75;;;5.45;;
16642;SDS011;8435;52.184;5.406;2022-08-14T10:56:10;5.68;;;5.28;;
16642;SDS011;8435;52.184;5.406;2022-08-14T10:58:37;4.80;;;4.50;;
16642;SDS011;8435;52.184;5.406;2022-08-14T11:01:05;5.10;;;4.75;;
16642;SDS011;8435;52.184;5.406;2022-08-14T11:03:36;4.72;;;4.43;;
16642;SDS011;8435;52.184;5.406;2022-08-14T11:06:14;5.25;;;4.85;;
16642;SDS011;8435;52.184;5.406;2022-08-14T11:08:45;5.13;;;4.82;;
16642;SDS011;8435;52.184;5.406;2022-08-14T11:11:13;5.13;;;4.63;;
16642;SDS011;8435;52.184;5.406;2022-08-14T11:13:42;4.95;;;4.65;;
16642;SDS011;8435;52.184;5.406;2022-08-14T11:16:10;5.18;;;4.88;;
16642;SDS011;8435;52.184;5.406;2022-08-14T11:18:42;4.93;;;4.63;;
16642;SDS011;8435;52.184;5.406;2022-08-14T11:21:13;4.70;;;4.40;;
16642;SDS011;8435;52.184;5.406;2022-08-14T11:23:43;5.10;;;4.60;;
16642;SDS011;8435;52.184;5.406;2022-08-14T11:26:13;5.13;;;4.80;;
16642;SDS011;8435;52.184;5.406;2022-08-14T11:28:44;4.95;;;4.55;;
16642;SDS011;8435;52.184;5.406;2022-08-14T11:31:13;5.68;;;5.18;;
16642;SDS011;8435;52.184;5.406;2022-08-14T11:33:43;5.07;;;4.78;;
16642;SDS011;8435;52.184;5.406;2022-08-14T11:36:13;5.10;;;4.80;;
16642;SDS011;8435;52.184;5.406;2022-08-14T11:38:41;4.97;;;4.68;;
16642;SDS011;8435;52.184;5.406;2022-08-14T11:41:14;5.30;;;4.82;;
16642;SDS011;8435;52.184;5.406;2022-08-14T11:43:45;5.20;;;4.80;;
16642;SDS011;8435;52.184;5.406;2022-08-14T11:46:14;5.10;;;4.72;;
16642;SDS011;8435;52.184;5.406;2022-08-14T11:48:45;4.65;;;4.25;;
16642;SDS011;8435;52.184;5.406;2022-08-14T11:51:14;4.80;;;4.50;;
16642;SDS011;8435;52.184;5.406;2022-08-14T11:53:52;4.65;;;4.40;;
16642;SDS011;8435;52.184;5.406;2022-08-14T11:56:21;5.30;;;4.95;;
16642;SDS011;8435;52.184;5.406;2022-08-14T11:58:50;4.80;;;4.50;;
16642;SDS011;8435;52.184;5.406;2022-08-14T12:01:22;4.80;;;4.50;;
16642;SDS011;8435;52.184;5.406;2022-08-14T12:03:52;4.97;;;4.68;;
16642;SDS011;8435;52.184;5.406;2022-08-14T12:06:23;5.00;;;4.65;;
16642;SDS011;8435;52.184;5.406;2022-08-14T12:08:50;4.93;;;4.63;;
16642;SDS011;8435;52.184;5.406;2022-08-14T12:11:18;5.00;;;4.70;;
16642;SDS011;8435;52.184;5.406;2022-08-14T12:13:47;5.00;;;4.60;;
16642;SDS011;8435;52.184;5.406;2022-08-14T12:16:15;4.80;;;4.43;;
16642;SDS011;8435;52.184;5.406;2022-08-14T12:18:42;4.90;;;4.60;;
16642;SDS011;8435;52.184;5.406;2022-08-14T12:21:12;5.10;;;4.80;;
16642;SDS011;8435;52.184;5.406;2022-08-14T12:23:40;5.90;;;5.53;;
16642;SDS011;8435;52.184;5.406;2022-08-14T12:26:08;4.63;;;4.38;;
16642;SDS011;8435;52.184;5.406;2022-08-14T12:28:38;4.78;;;4.47;;
16642;SDS011;8435;52.184;5.406;2022-08-14T12:31:13;4.50;;;4.18;;
16642;SDS011;8435;52.184;5.406;2022-08-14T12:33:54;4.72;;;4.43;;
16642;SDS011;8435;52.184;5.406;2022-08-14T12:36:24;4.57;;;4.28;;
16642;SDS011;8435;52.184;5.406;2022-08-14T12:38:54;4.90;;;4.53;;
16642;SDS011;8435;52.184;5.406;2022-08-14T12:41:23;4.63;;;4.43;;
16642;SDS011;8435;52.184;5.406;2022-08-14T12:43:52;4.82;;;4.53;;
16642;SDS011;8435;52.184;5.406;2022-08-14T12:46:25;5.10;;;4.80;;
16642;SDS011;8435;52.184;5.406;2022-08-14T12:48:54;5.00;;;4.70;;
16642;SDS011;8435;52.184;5.406;2022-08-14T12:51:23;4.90;;;4.50;;
16642;SDS011;8435;52.184;5.406;2022-08-14T12:53:51;4.40;;;4.20;;
16642;SDS011;8435;52.184;5.406;2022-08-14T12:56:19;4.32;;;4.07;;
16642;SDS011;8435;52.184;5.406;2022-08-14T12:58:50;5.10;;;4.70;;
16642;SDS011;8435;52.184;5.406;2022-08-14T13:01:19;4.57;;;4.28;;
16642;SDS011;8435;52.184;5.406;2022-08-14T13:03:49;4.40;;;4.20;;
16642;SDS011;8435;52.184;5.406;2022-08-14T13:06:17;4.82;;;4.53;;
16642;SDS011;8435;52.184;5.406;2022-08-14T13:08:48;4.80;;;4.50;;
16642;SDS011;8435;52.184;5.406;2022-08-14T13:11:17;5.68;;;5.35;;
16642;SDS011;8435;52.184;5.406;2022-08-14T13:13:45;5.03;;;4.63;;
16642;SDS011;8435;52.184;5.406;2022-08-14T13:16:16;5.43;;;5.00;;
16642;SDS011;8435;52.184;5.406;2022-08-14T13:18:43;5.30;;;5.00;;
16642;SDS011;8435;52.184;5.406;2022-08-14T13:21:13;4.90;;;4.60;;
16642;SDS011;8435;52.184;5.406;2022-08-14T13:23:40;4.60;;;4.40;;
16642;SDS011;8435;52.184;5.406;2022-08-14T13:26:10;5.00;;;4.70;;
16642;SDS011;8435;52.184;5.406;2022-08-14T13:28:39;5.53;;;5.00;;
16642;SDS011;8435;52.184;5.406;2022-08-14T13:31:07;4.70;;;4.50;;
16642;SDS011;8435;52.184;5.406;2022-08-14T13:33:38;4.60;;;4.30;;
16642;SDS011;8435;52.184;5.406;2022-08-14T13:36:05;5.07;;;4.78;;
16642;SDS011;8435;52.184;5.406;2022-08-14T13:38:35;6.65;;;4.90;;
16642;SDS011;8435;52.184;5.406;2022-08-14T13:41:03;5.22;;;4.93;;
16642;SDS011;8435;52.184;5.406;2022-08-14T13:43:30;5.55;;;5.25;;
16642;SDS011;8435;52.184;5.406;2022-08-14T13:45:57;5.03;;;4.72;;
16642;SDS011;8435;52.184;5.406;2022-08-14T13:48:24;4.78;;;4.57;;
16642;SDS011;8435;52.184;5.406;2022-08-14T13:50:52;5.20;;;4.90;;
16642;SDS011;8435;52.184;5.406;2022-08-14T13:53:22;5.00;;;4.70;;
16642;SDS011;8435;52.184;5.406;2022-08-14T13:55:53;5.80;;;4.78;;
16642;SDS011;8435;52.184;5.406;2022-08-14T13:58:21;4.95;;;4.65;;
16642;SDS011;8435;52.184;5.406;2022-08-14T14:00:52;5.13;;;4.82;;
16642;SDS011;8435;52.184;5.406;2022-08-14T14:03:20;5.43;;;5.03;;
16642;SDS011;8435;52.184;5.406;2022-08-14T14:05:51;4.43;;;4.22;;
16642;SDS011;8435;52.184;5.406;2022-08-14T14:08:20;5.28;;;4.97;;
16642;SDS011;8435;52.184;5.406;2022-08-14T14:10:48;5.03;;;4.72;;
16642;SDS011;8435;52.184;5.406;2022-08-14T14:13:20;5.25;;;4.95;;
16642;SDS011;8435;52.184;5.406;2022-08-14T14:15:55;5.20;;;4.90;;
16642;SDS011;8435;52.184;5.406;2022-08-14T14:18:29;5.05;;;4.65;;
16642;SDS011;8435;52.184;5.406;2022-08-14T14:20:58;5.05;;;4.75;;
16642;SDS011;8435;52.184;5.406;2022-08-14T14:23:31;4.80;;;4.50;;
16642;SDS011;8435;52.184;5.406;2022-08-14T14:26:29;4.75;;;4.50;;
16642;SDS011;8435;52.184;5.406;2022-08-14T14:28:50;5.22;;;4.82;;
16642;SDS011;8435;52.184;5.406;2022-08-14T14:31:21;5.20;;;4.80;;
16642;SDS011;8435;52.184;5.406;2022-08-14T14:33:55;6.13;;;5.70;;
16642;SDS011;8435;52.184;5.406;2022-08-14T14:36:24;5.32;;;5.00;;
16642;SDS011;8435;52.184;5.406;2022-08-14T14:38:52;5.47;;;5.13;;
16642;SDS011;8435;52.184;5.406;2022-08-14T14:41:21;5.13;;;4.72;;
16642;SDS011;8435;52.184;5.406;2022-08-14T14:43:51;4.97;;;4.57;;
16642;SDS011;8435;52.184;5.406;2022-08-14T14:46:19;6.10;;;5.60;;
16642;SDS011;8435;52.184;5.406;2022-08-14T14:48:48;4.82;;;4.55;;
16642;SDS011;8435;52.184;5.406;2022-08-14T14:51:15;5.25;;;4.85;;
16642;SDS011;8435;52.184;5.406;2022-08-14T14:53:44;6.70;;;6.20;;
16642;SDS011;8435;52.184;5.406;2022-08-14T14:56:11;5.22;;;4.85;;
16642;SDS011;8435;52.184;5.406;2022-08-14T14:58:40;5.43;;;5.13;;
16642;SDS011;8435;52.184;5.406;2022-08-14T15:01:09;6.32;;;5.90;;
16642;SDS011;8435;52.184;5.406;2022-08-14T15:03:41;8.18;;;5.88;;
16642;SDS011;8435;52.184;5.406;2022-08-14T15:06:10;14.38;;;13.27;;
16642;SDS011;8435;52.184;5.406;2022-08-14T15:08:37;8.55;;;7.95;;
16642;SDS011;8435;52.184;5.406;2022-08-14T15:11:04;6.88;;;6.38;;
16642;SDS011;8435;52.184;5.406;2022-08-14T15:13:32;9.43;;;8.57;;
16642;SDS011;8435;52.184;5.406;2022-08-14T15:16:01;6.88;;;6.28;;
16642;SDS011;8435;52.184;5.406;2022-08-14T15:18:31;5.72;;;5.40;;
16642;SDS011;8435;52.184;5.406;2022-08-14T15:20:58;5.55;;;5.25;;
16642;SDS011;8435;52.184;5.406;2022-08-14T15:23:27;5.82;;;5.45;;
16642;SDS011;8435;52.184;5.406;2022-08-14T15:25:54;6.35;;;5.72;;
16642;SDS011;8435;52.184;5.406;2022-08-14T15:28:21;5.22;;;4.90;;
16642;SDS011;8435;52.184;5.406;2022-08-14T15:30:48;5.78;;;5.38;;
16642;SDS011;8435;52.184;5.406;2022-08-14T15:33:18;5.22;;;4.93;;
16642;SDS011;8435;52.184;5.406;2022-08-14T15:36:08;17.30;;;15.85;;
16642;SDS011;8435;52.184;5.406;2022-08-14T15:38:35;19.73;;;18.02;;
16642;SDS011;8435;52.184;5.406;2022-08-14T15:41:03;9.80;;;9.00;;
16642;SDS011;8435;52.184;5.406;2022-08-14T15:43:31;7.00;;;6.40;;
16642;SDS011;8435;52.184;5.406;2022-08-14T15:45:59;5.90;;;5.50;;
16642;SDS011;8435;52.184;5.406;2022-08-14T15:48:26;6.30;;;5.80;;
16642;SDS011;8435;52.184;5.406;2022-08-14T15:50:53;11.88;;;11.07;;
16642;SDS011;8435;52.184;5.406;2022-08-14T15:53:22;9.48;;;8.88;;
16642;SDS011;8435;52.184;5.406;2022-08-14T15:55:50;7.05;;;6.63;;
16642;SDS011;8435;52.184;5.406;2022-08-14T15:58:18;5.88;;;5.50;;
16642;SDS011;8435;52.184;5.406;2022-08-14T16:00:45;6.60;;;6.18;;
16642;SDS011;8435;52.184;5.406;2022-08-14T16:03:35;6.78;;;6.10;;
16642;SDS011;8435;52.184;5.406;2022-08-14T16:06:02;6.38;;;5.68;;
16642;SDS011;8435;52.184;5.406;2022-08-14T16:08:32;8.35;;;7.32;;
16642;SDS011;8435;52.184;5.406;2022-08-14T16:11:00;6.57;;;6.07;;
16642;SDS011;8435;52.184;5.406;2022-08-14T16:13:29;9.02;;;8.35;;
16642;SDS011;8435;52.184;5.406;2022-08-14T16:16:02;6.30;;;5.88;;
16642;SDS011;8435;52.184;5.406;2022-08-14T16:18:32;6.05;;;5.65;;
16642;SDS011;8435;52.184;5.406;2022-08-14T16:21:04;6.10;;;5.70;;
16642;SDS011;8435;52.184;5.406;2022-08-14T16:23:35;6.05;;;5.65;;
16642;SDS011;8435;52.184;5.406;2022-08-14T16:26:05;6.40;;;5.90;;